LIRPLIMJ

Guest
Details From LIRP - PISA
To LIMJ - Genova Sestri
Flight Number -
Tags generated
Created
Modified
Stats Distance 80 nm / 149 km
Max Altitude 5,500 ft / 1,676 m
Waypoints 3
Social Downloads 0
Likes 0
Share VATSIM

Download

Looking for another format? Having issues loading an existing format? Contact us
Advertisement - Login to hide

Notes

Basic altitude profile: - Ascent Rate: 1800ft/min - Ascent Speed: 250kts - Cruise Altitude: 31000ft - Cruise Speed: 340kts - Descent Rate: 1500ft/min - Descent Speed: 250kts Options: - Use NATs: yes - Use PACOTS: yes - Use low airways: yes - Use high airways: yes

Route

LIRP LUKIM LIMJ

ID Type Via Altitude Latitude Longitude Leg Dist Tot Dist Heading (true) Name
O LIRP APT - 0 ft / 0 m 43.68388˚ 10.39272˚ - 0 nm - PISA
LUKIM FIX - 5,500 ft / 1,676 m 44.14000˚ 9.30861˚ 54 nm 54 nm 301° / 300° -
O LIMJ APT - 0 ft / 0 m 44.41196˚ 8.84187˚ 25 nm 80 nm 309° / 309° Genova Sestri

Altitude Profile

Advertisement - Login to hide

LIRP

Details ICAO LIRP (PSA)
Name PISA
Region Italy
Timezone Europe/Rome (UTC+2.0)
Stats Elevation 6 ft / 2 m (AMSL)
Location 43.683883° 10.392724°
Runways 2
Magnetic Variation 2.752° E

METAR

LIRP 230915Z 30004KT 9999 FEW020 20/15 Q1016 NOSIG

Decode

TAF

TAF AMD TAF AMD LIRP 230500Z 2306/2406 VRB03KT 9999 FEW020 SCT040 BECMG 2308/2310 30010KT TEMPO 2306/2308 0500 FG BKN001 PROB40 TEMPO 2308/2315 3000 TSRA FEW020CB BKN040 TEMPO 2400/2406 0500 FG BKN001

Decode

Departure Runways

ID Width Length Bearing (true) Bearing (mag) Surface Threshold Offset Overrun Length
04L 141 ft / 43 m 9,158 ft / 2,791 m 36.70° 33.95° Asphalt 979 ft / 298 m 0 ft / 0 m
04R 148 ft / 45 m 9,819 ft / 2,993 m 36.72° 33.97° Asphalt 490 ft / 149 m 0 ft / 0 m
22L 148 ft / 45 m 9,819 ft / 2,993 m 216.73° 213.98° Asphalt 843 ft / 257 m 0 ft / 0 m
22R 141 ft / 43 m 9,158 ft / 2,791 m 216.72° 213.97° Asphalt 0 ft / 0 m 0 ft / 0 m

LIMJ

Details ICAO LIMJ (GOA)
Name Genova Sestri
Region Italy
Timezone Unknown (UTC+0.0)
Stats Elevation 13 ft / 4 m (AMSL)
Location 44.411957° 8.841866°
Runways 1
Magnetic Variation 2.437° E

METAR

LIMJ 230920Z 03007KT 340V100 9999 FEW030 24/15 Q1016

Decode

TAF

TAF LIMJ 230500Z 2306/2406 VRB05KT 9999 SCT025 SCT060

Decode

Destination Runways

ID Width Length Bearing (true) Bearing (mag) Surface Threshold Offset Overrun Length
10 148 ft / 45 m 9,574 ft / 2,918 m 105.39° 102.95° Asphalt 0 ft / 0 m 0 ft / 0 m
28 148 ft / 45 m 9,574 ft / 2,918 m 285.41° 282.97° Asphalt 538 ft / 164 m 0 ft / 0 m

Approach Navaids

Runway Type Ident Frequency Range Bearing (true) Bearing (mag) Slope Elevation
28 Localiser GSE 109.30 MHz 18 nm / 33 km 287.30° 284.86° - 9 ft / 3 m (AMSL)
28 Glidescope GSE 109.30 MHz 10 nm / 19 km 287.30° 284.86° 3.17° 26 ft / 8 m (AMSL)
28 DME GSE 109.30 MHz 18 nm / 33 km - - - 26 ft / 8 m (AMSL)

Popular Alternatives